sensor_id;sensor_type;location;lat;lon;timestamp;P1;durP1;ratioP1;P2;durP2;ratioP2
28068;SDS011;15382;47.578;8.086;2022-12-18T00:00:27;42.88;;;18.92;;
28068;SDS011;15382;47.578;8.086;2022-12-18T00:10:28;51.05;;;19.98;;
28068;SDS011;15382;47.578;8.086;2022-12-18T00:20:29;45.88;;;18.40;;
28068;SDS011;15382;47.578;8.086;2022-12-18T00:30:30;46.97;;;18.45;;
28068;SDS011;15382;47.578;8.086;2022-12-18T00:40:31;48.83;;;19.50;;
28068;SDS011;15382;47.578;8.086;2022-12-18T00:50:32;49.13;;;18.42;;
28068;SDS011;15382;47.578;8.086;2022-12-18T01:00:34;46.80;;;19.55;;
28068;SDS011;15382;47.578;8.086;2022-12-18T01:10:36;57.50;;;19.08;;
28068;SDS011;15382;47.578;8.086;2022-12-18T01:20:39;54.60;;;20.05;;
28068;SDS011;15382;47.578;8.086;2022-12-18T01:30:40;59.90;;;20.65;;
28068;SDS011;15382;47.578;8.086;2022-12-18T01:40:42;51.00;;;20.38;;
28068;SDS011;15382;47.578;8.086;2022-12-18T01:50:43;53.85;;;20.77;;
28068;SDS011;15382;47.578;8.086;2022-12-18T02:00:44;53.70;;;21.65;;
28068;SDS011;15382;47.578;8.086;2022-12-18T02:21:04;56.08;;;22.25;;
28068;SDS011;15382;47.578;8.086;2022-12-18T02:31:11;59.22;;;23.50;;
28068;SDS011;15382;47.578;8.086;2022-12-18T02:41:15;67.72;;;25.23;;
28068;SDS011;15382;47.578;8.086;2022-12-18T02:51:29;64.38;;;24.67;;
28068;SDS011;15382;47.578;8.086;2022-12-18T03:11:53;72.00;;;26.10;;
28068;SDS011;15382;47.578;8.086;2022-12-18T03:22:17;70.25;;;26.25;;
28068;SDS011;15382;47.578;8.086;2022-12-18T03:32:24;77.43;;;28.02;;
28068;SDS011;15382;47.578;8.086;2022-12-18T03:42:31;72.57;;;27.10;;
28068;SDS011;15382;47.578;8.086;2022-12-18T03:52:47;77.00;;;27.67;;
28068;SDS011;15382;47.578;8.086;2022-12-18T04:03:02;84.63;;;28.77;;
28068;SDS011;15382;47.578;8.086;2022-12-18T04:13:12;71.93;;;26.67;;
28068;SDS011;15382;47.578;8.086;2022-12-18T04:23:22;80.80;;;28.17;;
28068;SDS011;15382;47.578;8.086;2022-12-18T04:33:23;75.47;;;26.90;;
28068;SDS011;15382;47.578;8.086;2022-12-18T04:43:24;84.63;;;29.13;;
28068;SDS011;15382;47.578;8.086;2022-12-18T04:53:25;72.53;;;26.25;;
28068;SDS011;15382;47.578;8.086;2022-12-18T05:03:26;77.22;;;27.10;;
28068;SDS011;15382;47.578;8.086;2022-12-18T05:13:27;80.57;;;26.65;;
28068;SDS011;15382;47.578;8.086;2022-12-18T05:23:29;84.70;;;29.80;;
28068;SDS011;15382;47.578;8.086;2022-12-18T05:33:31;78.25;;;27.98;;
28068;SDS011;15382;47.578;8.086;2022-12-18T05:43:34;89.85;;;29.85;;
28068;SDS011;15382;47.578;8.086;2022-12-18T05:53:36;85.38;;;31.38;;
28068;SDS011;15382;47.578;8.086;2022-12-18T06:03:38;83.18;;;28.52;;
28068;SDS011;15382;47.578;8.086;2022-12-18T06:13:39;83.43;;;27.65;;
28068;SDS011;15382;47.578;8.086;2022-12-18T06:23:40;85.35;;;28.83;;
28068;SDS011;15382;47.578;8.086;2022-12-18T06:33:42;86.93;;;28.27;;
28068;SDS011;15382;47.578;8.086;2022-12-18T06:43:43;92.35;;;29.05;;
28068;SDS011;15382;47.578;8.086;2022-12-18T06:53:44;92.35;;;29.17;;
28068;SDS011;15382;47.578;8.086;2022-12-18T07:03:44;73.95;;;27.70;;
28068;SDS011;15382;47.578;8.086;2022-12-18T07:13:45;90.32;;;30.02;;
28068;SDS011;15382;47.578;8.086;2022-12-18T07:23:47;82.55;;;29.52;;
28068;SDS011;15382;47.578;8.086;2022-12-18T07:33:48;88.60;;;28.27;;
28068;SDS011;15382;47.578;8.086;2022-12-18T07:43:49;82.63;;;29.70;;
28068;SDS011;15382;47.578;8.086;2022-12-18T07:53:50;97.32;;;31.60;;
28068;SDS011;15382;47.578;8.086;2022-12-18T08:03:51;99.78;;;29.50;;
28068;SDS011;15382;47.578;8.086;2022-12-18T08:13:52;85.50;;;28.08;;
28068;SDS011;15382;47.578;8.086;2022-12-18T08:23:53;83.72;;;29.15;;
28068;SDS011;15382;47.578;8.086;2022-12-18T08:33:56;82.50;;;28.52;;
28068;SDS011;15382;47.578;8.086;2022-12-18T08:43:57;88.25;;;29.52;;
28068;SDS011;15382;47.578;8.086;2022-12-18T08:54:16;75.80;;;27.75;;
28068;SDS011;15382;47.578;8.086;2022-12-18T09:04:17;93.22;;;28.77;;
28068;SDS011;15382;47.578;8.086;2022-12-18T09:14:17;91.32;;;29.55;;
28068;SDS011;15382;47.578;8.086;2022-12-18T09:24:18;81.72;;;31.60;;
28068;SDS011;15382;47.578;8.086;2022-12-18T09:34:19;95.65;;;33.30;;
28068;SDS011;15382;47.578;8.086;2022-12-18T09:44:25;85.40;;;29.63;;
28068;SDS011;15382;47.578;8.086;2022-12-18T09:54:40;82.25;;;29.05;;
28068;SDS011;15382;47.578;8.086;2022-12-18T10:04:45;76.97;;;27.23;;
28068;SDS011;15382;47.578;8.086;2022-12-18T10:25:10;75.97;;;26.88;;
28068;SDS011;15382;47.578;8.086;2022-12-18T10:35:24;69.90;;;23.63;;
28068;SDS011;15382;47.578;8.086;2022-12-18T10:45:26;72.10;;;26.15;;
28068;SDS011;15382;47.578;8.086;2022-12-18T10:55:30;66.18;;;24.17;;
28068;SDS011;15382;47.578;8.086;2022-12-18T11:05:33;70.20;;;23.73;;
28068;SDS011;15382;47.578;8.086;2022-12-18T11:15:36;61.28;;;22.92;;
28068;SDS011;15382;47.578;8.086;2022-12-18T11:25:41;58.13;;;21.23;;
28068;SDS011;15382;47.578;8.086;2022-12-18T11:35:56;60.28;;;21.00;;
28068;SDS011;15382;47.578;8.086;2022-12-18T11:46:23;62.53;;;20.98;;
28068;SDS011;15382;47.578;8.086;2022-12-18T11:56:36;59.58;;;20.77;;
28068;SDS011;15382;47.578;8.086;2022-12-18T12:06:53;52.55;;;19.08;;
28068;SDS011;15382;47.578;8.086;2022-12-18T12:37:43;66.10;;;21.08;;
28068;SDS011;15382;47.578;8.086;2022-12-18T12:58:23;60.75;;;19.80;;
28068;SDS011;15382;47.578;8.086;2022-12-18T13:08:50;60.67;;;22.92;;
28068;SDS011;15382;47.578;8.086;2022-12-18T13:19:01;55.75;;;19.77;;
28068;SDS011;15382;47.578;8.086;2022-12-18T13:29:03;53.92;;;18.65;;
28068;SDS011;15382;47.578;8.086;2022-12-18T13:39:11;54.15;;;20.23;;
28068;SDS011;15382;47.578;8.086;2022-12-18T13:49:20;52.17;;;18.48;;
28068;SDS011;15382;47.578;8.086;2022-12-18T13:59:35;48.88;;;19.15;;
28068;SDS011;15382;47.578;8.086;2022-12-18T14:09:40;54.28;;;18.10;;
28068;SDS011;15382;47.578;8.086;2022-12-18T14:19:44;54.75;;;21.38;;
28068;SDS011;15382;47.578;8.086;2022-12-18T14:29:48;55.40;;;18.63;;
28068;SDS011;15382;47.578;8.086;2022-12-18T14:39:52;49.50;;;19.80;;
28068;SDS011;15382;47.578;8.086;2022-12-18T14:49:57;45.53;;;17.83;;
28068;SDS011;15382;47.578;8.086;2022-12-18T15:00:10;54.22;;;19.65;;
28068;SDS011;15382;47.578;8.086;2022-12-18T15:10:17;42.40;;;15.88;;
28068;SDS011;15382;47.578;8.086;2022-12-18T15:20:23;41.03;;;16.58;;
28068;SDS011;15382;47.578;8.086;2022-12-18T15:30:24;45.95;;;17.55;;
28068;SDS011;15382;47.578;8.086;2022-12-18T15:40:25;40.92;;;15.23;;
28068;SDS011;15382;47.578;8.086;2022-12-18T15:50:26;40.72;;;16.13;;
28068;SDS011;15382;47.578;8.086;2022-12-18T16:00:27;39.55;;;15.68;;
28068;SDS011;15382;47.578;8.086;2022-12-18T16:10:28;41.70;;;16.23;;
28068;SDS011;15382;47.578;8.086;2022-12-18T16:20:29;49.70;;;18.55;;
28068;SDS011;15382;47.578;8.086;2022-12-18T16:30:30;51.13;;;16.30;;
28068;SDS011;15382;47.578;8.086;2022-12-18T16:40:31;49.05;;;16.95;;
28068;SDS011;15382;47.578;8.086;2022-12-18T16:50:33;56.70;;;18.83;;
28068;SDS011;15382;47.578;8.086;2022-12-18T17:00:34;56.20;;;18.52;;
28068;SDS011;15382;47.578;8.086;2022-12-18T17:10:35;54.47;;;19.85;;
28068;SDS011;15382;47.578;8.086;2022-12-18T17:20:36;56.20;;;19.27;;
28068;SDS011;15382;47.578;8.086;2022-12-18T17:30:38;58.50;;;20.90;;
28068;SDS011;15382;47.578;8.086;2022-12-18T17:40:39;70.30;;;23.10;;
28068;SDS011;15382;47.578;8.086;2022-12-18T17:50:40;71.55;;;21.88;;
28068;SDS011;15382;47.578;8.086;2022-12-18T18:00:41;63.45;;;21.63;;
28068;SDS011;15382;47.578;8.086;2022-12-18T18:10:41;65.25;;;23.13;;
28068;SDS011;15382;47.578;8.086;2022-12-18T18:20:42;82.22;;;29.02;;
28068;SDS011;15382;47.578;8.086;2022-12-18T18:30:43;85.18;;;28.05;;
28068;SDS011;15382;47.578;8.086;2022-12-18T18:40:44;65.93;;;24.45;;
28068;SDS011;15382;47.578;8.086;2022-12-18T18:50:54;65.53;;;23.65;;
28068;SDS011;15382;47.578;8.086;2022-12-18T19:00:57;81.18;;;24.63;;
28068;SDS011;15382;47.578;8.086;2022-12-18T19:10:59;88.40;;;27.35;;
28068;SDS011;15382;47.578;8.086;2022-12-18T19:21:03;76.82;;;25.80;;
28068;SDS011;15382;47.578;8.086;2022-12-18T19:31:06;88.50;;;30.10;;
28068;SDS011;15382;47.578;8.086;2022-12-18T19:41:08;89.63;;;28.77;;
28068;SDS011;15382;47.578;8.086;2022-12-18T19:51:13;80.70;;;26.42;;
28068;SDS011;15382;47.578;8.086;2022-12-18T20:01:16;90.88;;;27.35;;
28068;SDS011;15382;47.578;8.086;2022-12-18T20:11:19;93.85;;;30.02;;
28068;SDS011;15382;47.578;8.086;2022-12-18T20:21:20;84.88;;;26.20;;
28068;SDS011;15382;47.578;8.086;2022-12-18T20:31:21;89.45;;;27.60;;
28068;SDS011;15382;47.578;8.086;2022-12-18T20:41:22;101.45;;;29.67;;
28068;SDS011;15382;47.578;8.086;2022-12-18T20:51:23;100.65;;;30.95;;
28068;SDS011;15382;47.578;8.086;2022-12-18T21:01:27;104.45;;;29.55;;
28068;SDS011;15382;47.578;8.086;2022-12-18T21:11:29;99.60;;;31.55;;
28068;SDS011;15382;47.578;8.086;2022-12-18T21:21:51;110.45;;;27.95;;
28068;SDS011;15382;47.578;8.086;2022-12-18T21:31:52;98.10;;;28.70;;
28068;SDS011;15382;47.578;8.086;2022-12-18T21:41:54;102.78;;;28.02;;
28068;SDS011;15382;47.578;8.086;2022-12-18T21:52:14;102.90;;;30.83;;
28068;SDS011;15382;47.578;8.086;2022-12-18T22:02:16;86.78;;;27.50;;
28068;SDS011;15382;47.578;8.086;2022-12-18T22:12:19;100.72;;;30.25;;
28068;SDS011;15382;47.578;8.086;2022-12-18T22:22:34;94.43;;;28.48;;
28068;SDS011;15382;47.578;8.086;2022-12-18T22:32:35;97.57;;;27.73;;
28068;SDS011;15382;47.578;8.086;2022-12-18T22:42:36;107.57;;;26.90;;
28068;SDS011;15382;47.578;8.086;2022-12-18T22:52:37;94.97;;;26.98;;
28068;SDS011;15382;47.578;8.086;2022-12-18T23:02:38;78.88;;;24.83;;
28068;SDS011;15382;47.578;8.086;2022-12-18T23:12:39;98.32;;;27.80;;
28068;SDS011;15382;47.578;8.086;2022-12-18T23:22:39;110.55;;;28.05;;
28068;SDS011;15382;47.578;8.086;2022-12-18T23:32:40;97.20;;;28.02;;
28068;SDS011;15382;47.578;8.086;2022-12-18T23:42:41;98.88;;;30.23;;
28068;SDS011;15382;47.578;8.086;2022-12-18T23:52:42;106.40;;;30.92;;
